Flight Track Log - Related Links

Times and Time Zones

All times are in EDT time to prevent confusion due to time zone crossing. See the CHH7071 flight status page for this flight to view local times or setup timezone preferences in your user account.

Time Position Orientation Groundspeed Altitude Reporting Facility
EDT Latitude Longitude Course Direction KTS MPH feet Rate Location/Type
Tue 06:30:00 AM 21.8916 111.5792 28° Northeast  Level Estimated
Tue 06:31:00 AM 21.9892 111.6360 28° Northeast  Level Estimated
Tue 06:32:00 AM 22.0868 111.6929 28° Northeast  Level Estimated
Tue 06:33:00 AM 22.1845 111.7498 28° Northeast  Level Estimated
Tue 06:34:00 AM 22.2820 111.8069 28° Northeast  Level Estimated
Tue 06:35:00 AM 22.3796 111.8640 28° Northeast  Level Estimated
Tue 06:36:00 AM 22.4771 111.9212 28° Northeast  Level Estimated
Tue 06:37:00 AM 22.5746 111.9784 28° Northeast  Level Estimated
Tue 06:38:00 AM 22.6722 112.0358 28° Northeast  Level Estimated
Tue 06:39:00 AM 22.7696 112.0932 29° Northeast  Level Estimated
Tue 06:40:00 AM 22.8671 112.1508 29° Northeast  Level Estimated
Tue 06:41:00 AM 22.9645 112.2084 29° Northeast  Level Estimated
Tue 06:42:00 AM 23.0620 112.2661 29° Northeast  Level Estimated
Tue 06:43:00 AM 23.1593 112.3238 29° Northeast  Level Estimated
Tue 06:44:00 AM 23.2567 112.3817 29° Northeast  Level Estimated
Tue 06:45:00 AM 23.3541 112.4396 29° Northeast  Level Estimated
Tue 06:46:00 AM 23.4514 112.4976 29° Northeast  Level Estimated
Tue 06:47:00 AM 23.5487 112.5557 29° Northeast  Level Estimated
Tue 06:48:00 AM 23.6460 112.6139 29° Northeast  Level Estimated
Tue 06:49:00 AM 23.7433 112.6722 29° Northeast  Level Estimated
Tue 06:50:00 AM 23.8405 112.7306 29° Northeast  Level Estimated
Tue 06:51:00 AM 23.9378 112.7890 29° Northeast  Level Estimated
Tue 06:52:00 AM 24.0350 112.8476 29° Northeast  Level Estimated
Tue 06:53:00 AM 24.1321 112.9062 29° Northeast  Level Estimated
Tue 06:54:00 AM 24.2293 112.9649 29° Northeast  Level Estimated
Tue 06:55:00 AM 24.3264 113.0237 29° Northeast  Level Estimated
Tue 06:56:00 AM 24.4235 113.0826 29° Northeast  Level Estimated
Tue 06:57:00 AM 24.5206 113.1416 29° Northeast  Level Estimated
Tue 06:58:00 AM 24.6177 113.2007 29° Northeast  Level Estimated
Tue 06:59:00 AM 24.7148 113.2599 29° Northeast  Level Estimated
Tue 07:00:00 AM 24.8118 113.3192 29° Northeast  Level Estimated
Tue 07:01:00 AM 24.9088 113.3785 29° Northeast  Level Estimated
Tue 07:02:00 AM 25.0057 113.4380 29° Northeast  Level Estimated
Tue 07:03:00 AM 25.1027 113.4975 29° Northeast  Level Estimated
Tue 07:04:00 AM 25.1996 113.5572 29° Northeast  Level Estimated
Tue 07:05:00 AM 25.2965 113.6169 29° Northeast  Level Estimated
Tue 07:06:00 AM 25.3934 113.6767 29° Northeast  Level Estimated
Tue 07:07:00 AM 25.4902 113.7366 29° Northeast  Level Estimated
Tue 07:08:00 AM 25.5871 113.7967 29° Northeast  Level Estimated
Tue 07:09:00 AM 25.6839 113.8568 29° Northeast  Level Estimated
Tue 07:10:00 AM 25.7807 113.9170 29° Northeast  Level Estimated
Tue 07:11:00 AM 25.8774 113.9773 29° Northeast  Level Estimated
Tue 07:12:00 AM 25.9741 114.0378 29° Northeast  Level Estimated
Tue 07:13:00 AM 26.0709 114.0983 29° Northeast  Level Estimated
Tue 07:14:00 AM 26.1675 114.1589 29° Northeast  Level Estimated
Tue 07:15:00 AM 26.2642 114.2196 29° Northeast  Level Estimated
Tue 07:16:00 AM 26.3608 114.2804 29° Northeast  Level Estimated
Tue 07:17:00 AM 26.4574 114.3413 29° Northeast  Level Estimated
Tue 07:18:00 AM 26.5540 114.4024 29° Northeast  Level Estimated
Tue 07:19:00 AM 26.6506 114.4635 29° Northeast  Level Estimated
Tue 07:20:00 AM 26.7471 114.5247 30° Northeast  Level Estimated
Tue 07:21:00 AM 26.8436 114.5860 30° Northeast  Level Estimated
Tue 07:22:00 AM 26.9400 114.6475 30° Northeast  Level Estimated
Tue 07:23:00 AM 27.0365 114.7090 30° Northeast  Level Estimated
Tue 07:24:00 AM 27.1329 114.7707 30° Northeast  Level Estimated
Tue 07:25:00 AM 27.2293 114.8324 30° Northeast  Level Estimated
Tue 07:26:00 AM 27.3257 114.8943 30° Northeast  Level Estimated
Tue 07:27:00 AM 27.4220 114.9563 30° Northeast  Level Estimated
Tue 07:28:00 AM 27.5183 115.0183 30° Northeast  Level Estimated
Tue 07:29:00 AM 27.6146 115.0805 30° Northeast  Level Estimated
Tue 07:30:00 AM 27.7108 115.1428 30° Northeast  Level Estimated
Tue 07:31:00 AM 27.8071 115.2052 30° Northeast  Level Estimated
Tue 07:32:00 AM 27.9033 115.2677 30° Northeast  Level Estimated
Tue 07:33:00 AM 27.9994 115.3304 30° Northeast  Level Estimated
Tue 07:34:00 AM 28.0956 115.3931 30° Northeast  Level Estimated
Tue 07:35:00 AM 28.1917 115.4560 30° Northeast  Level Estimated
Tue 07:36:00 AM 28.2878 115.5189 30° Northeast  Level Estimated
Tue 07:37:00 AM 28.3838 115.5820 30° Northeast  Level Estimated
Tue 07:38:00 AM 28.4799 115.6452 30° Northeast  Level Estimated
Tue 07:39:00 AM 28.5759 115.7085 30° Northeast  Level Estimated
Tue 07:40:00 AM 28.6718 115.7719 30° Northeast  Level Estimated
Tue 07:41:00 AM 28.7678 115.8355 30° Northeast  Level Estimated
Tue 07:42:00 AM 28.8637 115.8991 30° Northeast  Level Estimated
Tue 07:43:00 AM 28.8650 115.9000 30° Northeast  Level Estimated
Tue 07:44:00 AM 28.8650 115.9000 North  Level Estimated
Tue 07:45:00 AM 28.8650 115.9000 North  Level Estimated
Tue 07:46:00 AM 28.8650 115.9000 North  Level Estimated
Tue 07:47:00 AM 28.8650 115.9000 North  Level Estimated
Tue 07:48:00 AM 28.8650 115.9000 North  Level Estimated
Tue 07:49:00 AM 28.8650 115.9000 North  Level Estimated
Tue 07:50:00 AM 28.8650 115.9000 North  Level Estimated
Tue 07:51:00 AM 28.8650 115.9000 North  Level Estimated
Tue 07:52:00 AM 28.8650 115.9000 North  Level Estimated
Tue 07:53:00 AM 28.8650 115.9000 North  Level Estimated
Tue 07:54:00 AM 28.8650 115.9000 North  Level Estimated
Tue 07:55:00 AM 28.8650 115.9000 North  Level Estimated
Tue 07:56:00 AM 28.8650 115.9000 North  Level Estimated
Tue 07:57:00 AM 28.8650 115.9000 North  Level Estimated
Tue 07:58:00 AM 28.8650 115.9000 North  Level Estimated

Login

Don't have an account? Register now (free) for customized features, flight alerts, and more!